Abbey Dell, Indiana
Current Conditions -  °F | °C
As of 5:15 AM on Saturday 22 Nov 2014 (Local Time) from KDCY Reporting Station
Overcast Overcast  
Wind Chill: 31°   Ceiling: 6000
Heat Index: 39°   Visibility: 10mi
Dew Point: 33°   Wind: 14mph
Humidity: 78%   Direction: 180°S
Pressure: 30.22"   Gusts: NA
Location:  38.6165°N, 86.6265°W
Report Text: KDCY 221015Z AUTO 18012KT 10SM OVC060 04/00 A3022 RMK AO2 T00400004
Loading
Personal Weather Stations






























Interactive Weather Map New forecast layout! Learn more

10-Day Weather Forecast

Advertisements
Track Severe Weather on mobile